Timblin, Pennsylvania
Current Conditions -  °F | °C
As of 4:53 AM on Monday 22 Dec 2014 (Local Time) from KDUJ Reporting Station
Clear Clear  
Wind Chill: 11°   Ceiling: Unl
Heat Index: 21°   Visibility: 8mi
Dew Point: 19°   Wind: 8mph
Humidity: 92%   Direction: 110°ESE
Pressure: 30.12"   Gusts: NA
Location:  40.97°N, 79.2°W
Report Text: KDUJ 220953Z AUTO 11007KT 8SM CLR M06/M07 A3012 RMK AO2 SLP224 T10611072
Loading
Personal Weather Stations






























Interactive Weather Map New forecast layout! Learn more

10-Day Weather Forecast

Advertisements
Track Severe Weather on mobile